sensor_id;sensor_type;location;lat;lon;timestamp;temperature;humidity
43099;DHT22;28715;51.988;6.020;2022-12-15T00:02:40;-2.00;96.60
43099;DHT22;28715;51.988;6.020;2022-12-15T00:05:25;-2.00;96.70
43099;DHT22;28715;51.988;6.020;2022-12-15T00:08:09;-2.00;96.70
43099;DHT22;28715;51.988;6.020;2022-12-15T00:10:54;-2.10;96.70
43099;DHT22;28715;51.988;6.020;2022-12-15T00:13:38;-2.00;96.70
43099;DHT22;28715;51.988;6.020;2022-12-15T00:16:22;-2.00;96.70
43099;DHT22;28715;51.988;6.020;2022-12-15T00:19:06;-2.00;96.70
43099;DHT22;28715;51.988;6.020;2022-12-15T00:21:50;-2.00;96.70
43099;DHT22;28715;51.988;6.020;2022-12-15T00:24:34;-2.00;96.60
43099;DHT22;28715;51.988;6.020;2022-12-15T00:27:18;-2.00;96.60
43099;DHT22;28715;51.988;6.020;2022-12-15T00:30:04;-2.00;96.50
43099;DHT22;28715;51.988;6.020;2022-12-15T00:32:49;-2.00;96.50
43099;DHT22;28715;51.988;6.020;2022-12-15T00:35:33;-2.00;96.60
43099;DHT22;28715;51.988;6.020;2022-12-15T00:38:17;-2.10;96.50
43099;DHT22;28715;51.988;6.020;2022-12-15T00:41:01;-2.10;96.50
43099;DHT22;28715;51.988;6.020;2022-12-15T00:43:28;-2.10;96.50
43099;DHT22;28715;51.988;6.020;2022-12-15T00:45:54;-2.10;96.50
43099;DHT22;28715;51.988;6.020;2022-12-15T00:48:39;-2.20;96.50
43099;DHT22;28715;51.988;6.020;2022-12-15T00:51:05;-2.20;96.60
43099;DHT22;28715;51.988;6.020;2022-12-15T00:53:30;-2.20;96.60
43099;DHT22;28715;51.988;6.020;2022-12-15T00:56:14;-2.20;96.70
43099;DHT22;28715;51.988;6.020;2022-12-15T00:58:59;-2.20;96.70
43099;DHT22;28715;51.988;6.020;2022-12-15T01:01:42;-2.20;96.70
43099;DHT22;28715;51.988;6.020;2022-12-15T01:04:27;-2.20;96.70
43099;DHT22;28715;51.988;6.020;2022-12-15T01:07:11;-2.20;96.80
43099;DHT22;28715;51.988;6.020;2022-12-15T01:09:55;-2.20;96.80
43099;DHT22;28715;51.988;6.020;2022-12-15T01:12:39;-2.20;96.80
43099;DHT22;28715;51.988;6.020;2022-12-15T01:15:24;-2.20;96.80
43099;DHT22;28715;51.988;6.020;2022-12-15T01:18:08;-2.20;96.70
43099;DHT22;28715;51.988;6.020;2022-12-15T01:20:56;-2.20;96.70
43099;DHT22;28715;51.988;6.020;2022-12-15T01:23:22;-2.30;96.50
43099;DHT22;28715;51.988;6.020;2022-12-15T01:25:50;-2.30;96.50
43099;DHT22;28715;51.988;6.020;2022-12-15T01:28:16;-2.30;96.40
43099;DHT22;28715;51.988;6.020;2022-12-15T01:30:41;-2.40;96.50
43099;DHT22;28715;51.988;6.020;2022-12-15T01:33:07;-2.30;96.60
43099;DHT22;28715;51.988;6.020;2022-12-15T01:35:33;-2.30;96.70
43099;DHT22;28715;51.988;6.020;2022-12-15T01:37:59;-2.30;96.80
43099;DHT22;28715;51.988;6.020;2022-12-15T01:40:25;-2.30;96.80
43099;DHT22;28715;51.988;6.020;2022-12-15T01:43:12;-2.30;96.70
43099;DHT22;28715;51.988;6.020;2022-12-15T01:53:42;-2.20;96.60
43099;DHT22;28715;51.988;6.020;2022-12-15T01:56:10;-2.20;96.50
43099;DHT22;28715;51.988;6.020;2022-12-15T01:58:36;-2.20;96.50
43099;DHT22;28715;51.988;6.020;2022-12-15T02:01:04;-2.20;96.50
43099;DHT22;28715;51.988;6.020;2022-12-15T02:03:30;-2.20;96.60
43099;DHT22;28715;51.988;6.020;2022-12-15T02:05:57;-2.20;96.60
43099;DHT22;28715;51.988;6.020;2022-12-15T02:08:25;-2.20;96.60
43099;DHT22;28715;51.988;6.020;2022-12-15T02:14:04;-2.20;96.60
43099;DHT22;28715;51.988;6.020;2022-12-15T02:17:08;-2.20;96.50
43099;DHT22;28715;51.988;6.020;2022-12-15T02:31:03;-2.30;96.50
43099;DHT22;28715;51.988;6.020;2022-12-15T02:34:10;-2.30;96.50
43099;DHT22;28715;51.988;6.020;2022-12-15T02:36:41;-2.30;96.50
43099;DHT22;28715;51.988;6.020;2022-12-15T02:39:10;-2.40;96.50
43099;DHT22;28715;51.988;6.020;2022-12-15T02:41:40;-2.40;96.50
43099;DHT22;28715;51.988;6.020;2022-12-15T02:44:10;-2.30;96.60
43099;DHT22;28715;51.988;6.020;2022-12-15T02:52:19;-2.30;96.60
43099;DHT22;28715;51.988;6.020;2022-12-15T02:54:54;-2.30;96.50
43099;DHT22;28715;51.988;6.020;2022-12-15T03:00:11;-2.30;96.60
43099;DHT22;28715;51.988;6.020;2022-12-15T03:02:40;-2.30;96.50
43099;DHT22;28715;51.988;6.020;2022-12-15T03:05:07;-2.30;96.50
43099;DHT22;28715;51.988;6.020;2022-12-15T03:07:33;-2.30;96.50
43099;DHT22;28715;51.988;6.020;2022-12-15T03:10:01;-2.30;96.50
43099;DHT22;28715;51.988;6.020;2022-12-15T03:12:27;-2.30;96.40
43099;DHT22;28715;51.988;6.020;2022-12-15T03:14:53;-2.30;96.40
43099;DHT22;28715;51.988;6.020;2022-12-15T03:17:18;-2.30;96.40
43099;DHT22;28715;51.988;6.020;2022-12-15T03:19:44;-2.30;96.40
43099;DHT22;28715;51.988;6.020;2022-12-15T03:22:10;-2.30;96.30
43099;DHT22;28715;51.988;6.020;2022-12-15T03:24:35;-2.30;96.30
43099;DHT22;28715;51.988;6.020;2022-12-15T03:27:02;-2.30;96.20
43099;DHT22;28715;51.988;6.020;2022-12-15T03:29:28;-2.30;96.10
43099;DHT22;28715;51.988;6.020;2022-12-15T03:31:53;-2.40;96.10
43099;DHT22;28715;51.988;6.020;2022-12-15T03:34:19;-2.40;96.20
43099;DHT22;28715;51.988;6.020;2022-12-15T03:36:45;-2.40;96.20
43099;DHT22;28715;51.988;6.020;2022-12-15T03:39:10;-2.40;96.20
43099;DHT22;28715;51.988;6.020;2022-12-15T03:41:36;-2.40;96.20
43099;DHT22;28715;51.988;6.020;2022-12-15T03:44:02;-2.40;96.50
43099;DHT22;28715;51.988;6.020;2022-12-15T03:46:28;-2.40;96.20
43099;DHT22;28715;51.988;6.020;2022-12-15T03:48:54;-2.40;96.20
43099;DHT22;28715;51.988;6.020;2022-12-15T03:51:19;-2.40;96.20
43099;DHT22;28715;51.988;6.020;2022-12-15T03:53:45;-2.40;96.20
43099;DHT22;28715;51.988;6.020;2022-12-15T03:56:15;-2.40;96.20
43099;DHT22;28715;51.988;6.020;2022-12-15T03:58:41;-2.40;96.30
43099;DHT22;28715;51.988;6.020;2022-12-15T04:01:12;-2.40;96.30
43099;DHT22;28715;51.988;6.020;2022-12-15T04:03:37;-2.40;96.30
43099;DHT22;28715;51.988;6.020;2022-12-15T04:06:03;-2.40;96.40
43099;DHT22;28715;51.988;6.020;2022-12-15T04:08:29;-2.30;96.40
43099;DHT22;28715;51.988;6.020;2022-12-15T04:10:54;-2.40;96.30
43099;DHT22;28715;51.988;6.020;2022-12-15T04:13:20;-2.40;96.20
43099;DHT22;28715;51.988;6.020;2022-12-15T04:15:45;-2.40;96.10
43099;DHT22;28715;51.988;6.020;2022-12-15T04:18:11;-2.40;96.20
43099;DHT22;28715;51.988;6.020;2022-12-15T04:20:37;-2.40;96.20
43099;DHT22;28715;51.988;6.020;2022-12-15T04:23:04;-2.40;96.10
43099;DHT22;28715;51.988;6.020;2022-12-15T04:25:32;-2.40;96.10
43099;DHT22;28715;51.988;6.020;2022-12-15T04:28:16;-2.40;96.10
43099;DHT22;28715;51.988;6.020;2022-12-15T04:31:09;-2.40;96.00
43099;DHT22;28715;51.988;6.020;2022-12-15T04:33:56;-2.40;96.00
43099;DHT22;28715;51.988;6.020;2022-12-15T04:36:42;-2.50;95.90
43099;DHT22;28715;51.988;6.020;2022-12-15T04:39:26;-2.50;96.00
43099;DHT22;28715;51.988;6.020;2022-12-15T04:42:10;-2.50;96.00
43099;DHT22;28715;51.988;6.020;2022-12-15T04:44:57;-2.50;96.00
43099;DHT22;28715;51.988;6.020;2022-12-15T04:47:42;-2.50;96.00
43099;DHT22;28715;51.988;6.020;2022-12-15T04:50:26;-2.50;96.10
43099;DHT22;28715;51.988;6.020;2022-12-15T04:53:13;-2.50;96.10
43099;DHT22;28715;51.988;6.020;2022-12-15T04:55:57;-2.50;96.10
43099;DHT22;28715;51.988;6.020;2022-12-15T04:58:41;-2.60;96.00
43099;DHT22;28715;51.988;6.020;2022-12-15T05:01:25;-2.60;96.00
43099;DHT22;28715;51.988;6.020;2022-12-15T05:04:09;-2.60;96.00
43099;DHT22;28715;51.988;6.020;2022-12-15T05:06:53;-2.70;96.10
43099;DHT22;28715;51.988;6.020;2022-12-15T05:09:37;-2.60;96.20
43099;DHT22;28715;51.988;6.020;2022-12-15T05:12:21;-2.70;96.30
43099;DHT22;28715;51.988;6.020;2022-12-15T05:15:06;-2.70;96.30
43099;DHT22;28715;51.988;6.020;2022-12-15T05:17:50;-2.60;96.30
43099;DHT22;28715;51.988;6.020;2022-12-15T05:20:34;-2.60;96.30
43099;DHT22;28715;51.988;6.020;2022-12-15T05:23:19;-2.60;96.30
43099;DHT22;28715;51.988;6.020;2022-12-15T05:26:03;-2.60;96.20
43099;DHT22;28715;51.988;6.020;2022-12-15T05:28:48;-2.60;96.30
43099;DHT22;28715;51.988;6.020;2022-12-15T05:31:32;-2.60;96.30
43099;DHT22;28715;51.988;6.020;2022-12-15T05:34:19;-2.60;96.30
43099;DHT22;28715;51.988;6.020;2022-12-15T05:36:46;-2.60;96.30
43099;DHT22;28715;51.988;6.020;2022-12-15T05:39:11;-2.60;96.30
43099;DHT22;28715;51.988;6.020;2022-12-15T05:41:37;-2.60;96.20
43099;DHT22;28715;51.988;6.020;2022-12-15T05:44:02;-2.60;96.30
43099;DHT22;28715;51.988;6.020;2022-12-15T05:46:28;-2.60;96.30
43099;DHT22;28715;51.988;6.020;2022-12-15T05:48:54;-2.60;96.40
43099;DHT22;28715;51.988;6.020;2022-12-15T05:51:19;-2.60;96.30
43099;DHT22;28715;51.988;6.020;2022-12-15T05:53:45;-2.60;96.30
43099;DHT22;28715;51.988;6.020;2022-12-15T05:56:12;-2.60;96.30
43099;DHT22;28715;51.988;6.020;2022-12-15T05:58:39;-2.60;96.30
43099;DHT22;28715;51.988;6.020;2022-12-15T06:01:13;-2.60;96.30
43099;DHT22;28715;51.988;6.020;2022-12-15T06:03:39;-2.60;96.30
43099;DHT22;28715;51.988;6.020;2022-12-15T06:06:06;-2.60;96.30
43099;DHT22;28715;51.988;6.020;2022-12-15T06:08:34;-2.60;96.30
43099;DHT22;28715;51.988;6.020;2022-12-15T06:11:01;-2.60;96.30
43099;DHT22;28715;51.988;6.020;2022-12-15T06:13:28;-2.60;96.20
43099;DHT22;28715;51.988;6.020;2022-12-15T06:16:00;-2.60;96.30
43099;DHT22;28715;51.988;6.020;2022-12-15T06:18:32;-2.60;96.20
43099;DHT22;28715;51.988;6.020;2022-12-15T06:21:09;-2.70;96.10
43099;DHT22;28715;51.988;6.020;2022-12-15T06:23:35;-2.70;96.10
43099;DHT22;28715;51.988;6.020;2022-12-15T06:28:38;-2.70;96.20
43099;DHT22;28715;51.988;6.020;2022-12-15T06:31:06;-2.70;96.30
43099;DHT22;28715;51.988;6.020;2022-12-15T06:33:31;-2.70;96.20
43099;DHT22;28715;51.988;6.020;2022-12-15T06:36:10;-2.80;96.10
43099;DHT22;28715;51.988;6.020;2022-12-15T06:38:36;-2.80;96.10
43099;DHT22;28715;51.988;6.020;2022-12-15T06:41:04;-2.90;96.20
43099;DHT22;28715;51.988;6.020;2022-12-15T06:43:30;-2.90;96.30
43099;DHT22;28715;51.988;6.020;2022-12-15T06:45:57;-2.90;96.40
43099;DHT22;28715;51.988;6.020;2022-12-15T06:48:23;-2.90;96.40
43099;DHT22;28715;51.988;6.020;2022-12-15T06:50:49;-2.90;96.50
43099;DHT22;28715;51.988;6.020;2022-12-15T06:53:16;-2.90;96.50
43099;DHT22;28715;51.988;6.020;2022-12-15T06:55:43;-2.90;96.50
43099;DHT22;28715;51.988;6.020;2022-12-15T06:58:09;-2.90;96.50
43099;DHT22;28715;51.988;6.020;2022-12-15T07:00:37;-2.90;96.50
43099;DHT22;28715;51.988;6.020;2022-12-15T07:03:05;-2.90;96.40
43099;DHT22;28715;51.988;6.020;2022-12-15T07:05:31;-2.90;96.30
43099;DHT22;28715;51.988;6.020;2022-12-15T07:07:57;-3.00;96.30
43099;DHT22;28715;51.988;6.020;2022-12-15T07:10:22;-3.00;96.40
43099;DHT22;28715;51.988;6.020;2022-12-15T07:12:48;-3.00;96.50
43099;DHT22;28715;51.988;6.020;2022-12-15T07:15:13;-3.00;96.50
43099;DHT22;28715;51.988;6.020;2022-12-15T07:17:39;-3.00;96.60
43099;DHT22;28715;51.988;6.020;2022-12-15T07:20:05;-3.00;96.50
43099;DHT22;28715;51.988;6.020;2022-12-15T07:22:31;-3.00;96.40
43099;DHT22;28715;51.988;6.020;2022-12-15T07:24:57;-3.00;96.50
43099;DHT22;28715;51.988;6.020;2022-12-15T07:27:23;-3.00;96.60
43099;DHT22;28715;51.988;6.020;2022-12-15T07:29:49;-3.00;96.70
43099;DHT22;28715;51.988;6.020;2022-12-15T07:32:14;-3.00;96.70
43099;DHT22;28715;51.988;6.020;2022-12-15T07:34:41;-3.00;96.70
43099;DHT22;28715;51.988;6.020;2022-12-15T07:37:07;-3.00;96.50
43099;DHT22;28715;51.988;6.020;2022-12-15T07:39:32;-3.00;96.30
43099;DHT22;28715;51.988;6.020;2022-12-15T07:41:58;-3.10;96.30
43099;DHT22;28715;51.988;6.020;2022-12-15T07:44:24;-3.10;96.30
43099;DHT22;28715;51.988;6.020;2022-12-15T07:46:49;-3.10;96.40
43099;DHT22;28715;51.988;6.020;2022-12-15T07:49:16;-3.20;96.30
43099;DHT22;28715;51.988;6.020;2022-12-15T07:51:42;-3.20;96.30
43099;DHT22;28715;51.988;6.020;2022-12-15T07:54:09;-3.10;96.50
43099;DHT22;28715;51.988;6.020;2022-12-15T07:56:36;-3.10;96.50
43099;DHT22;28715;51.988;6.020;2022-12-15T07:59:03;-3.20;96.40
43099;DHT22;28715;51.988;6.020;2022-12-15T08:01:28;-3.10;96.30
43099;DHT22;28715;51.988;6.020;2022-12-15T08:03:54;-3.20;96.20
43099;DHT22;28715;51.988;6.020;2022-12-15T08:06:19;-3.20;96.30
43099;DHT22;28715;51.988;6.020;2022-12-15T08:08:45;-3.20;96.10
43099;DHT22;28715;51.988;6.020;2022-12-15T08:11:12;-3.20;96.20
43099;DHT22;28715;51.988;6.020;2022-12-15T08:13:40;-3.20;96.30
43099;DHT22;28715;51.988;6.020;2022-12-15T08:16:06;-3.20;96.40
43099;DHT22;28715;51.988;6.020;2022-12-15T08:18:31;-3.20;96.50
43099;DHT22;28715;51.988;6.020;2022-12-15T08:21:04;-3.20;96.50
43099;DHT22;28715;51.988;6.020;2022-12-15T08:23:31;-3.10;96.60
43099;DHT22;28715;51.988;6.020;2022-12-15T08:26:05;-3.10;96.60
43099;DHT22;28715;51.988;6.020;2022-12-15T08:28:33;-3.10;96.60
43099;DHT22;28715;51.988;6.020;2022-12-15T08:31:07;-3.10;96.50
43099;DHT22;28715;51.988;6.020;2022-12-15T08:33:33;-3.10;96.40
43099;DHT22;28715;51.988;6.020;2022-12-15T08:36:00;-3.10;96.30
43099;DHT22;28715;51.988;6.020;2022-12-15T08:38:27;-3.10;96.30
43099;DHT22;28715;51.988;6.020;2022-12-15T08:40:53;-3.10;96.40
43099;DHT22;28715;51.988;6.020;2022-12-15T08:43:18;-3.10;96.50
43099;DHT22;28715;51.988;6.020;2022-12-15T08:45:44;-3.10;96.60
43099;DHT22;28715;51.988;6.020;2022-12-15T08:48:09;-3.00;96.80
43099;DHT22;28715;51.988;6.020;2022-12-15T08:50:35;-3.00;96.90
43099;DHT22;28715;51.988;6.020;2022-12-15T08:53:00;-2.90;97.00
43099;DHT22;28715;51.988;6.020;2022-12-15T08:55:26;-2.80;97.10
43099;DHT22;28715;51.988;6.020;2022-12-15T08:57:53;-2.70;97.10
43099;DHT22;28715;51.988;6.020;2022-12-15T09:00:19;-2.70;97.10
43099;DHT22;28715;51.988;6.020;2022-12-15T09:02:44;-2.60;97.10
43099;DHT22;28715;51.988;6.020;2022-12-15T09:05:10;-2.50;97.20
43099;DHT22;28715;51.988;6.020;2022-12-15T09:07:35;-2.50;97.10
43099;DHT22;28715;51.988;6.020;2022-12-15T09:10:01;-2.40;97.10
43099;DHT22;28715;51.988;6.020;2022-12-15T09:12:27;-2.30;97.10
43099;DHT22;28715;51.988;6.020;2022-12-15T09:14:52;-2.30;96.80
43099;DHT22;28715;51.988;6.020;2022-12-15T09:17:18;-2.30;96.70
43099;DHT22;28715;51.988;6.020;2022-12-15T09:19:43;-2.30;96.70
43099;DHT22;28715;51.988;6.020;2022-12-15T09:22:09;-2.30;96.90
43099;DHT22;28715;51.988;6.020;2022-12-15T09:24:35;-2.30;97.10
43099;DHT22;28715;51.988;6.020;2022-12-15T09:27:00;-2.20;97.30
43099;DHT22;28715;51.988;6.020;2022-12-15T09:29:27;-2.10;97.30
43099;DHT22;28715;51.988;6.020;2022-12-15T09:31:52;-2.10;97.30
43099;DHT22;28715;51.988;6.020;2022-12-15T09:34:18;-2.00;97.40
43099;DHT22;28715;51.988;6.020;2022-12-15T09:36:44;-1.90;97.40
43099;DHT22;28715;51.988;6.020;2022-12-15T09:39:09;-1.90;97.40
43099;DHT22;28715;51.988;6.020;2022-12-15T09:41:37;-1.80;97.40
43099;DHT22;28715;51.988;6.020;2022-12-15T09:44:15;-1.70;97.40
43099;DHT22;28715;51.988;6.020;2022-12-15T09:49:47;-1.50;97.40
43099;DHT22;28715;51.988;6.020;2022-12-15T09:52:22;-1.40;97.60
43099;DHT22;28715;51.988;6.020;2022-12-15T09:54:49;-1.00;98.40
43099;DHT22;28715;51.988;6.020;2022-12-15T09:57:36;-0.60;98.30
43099;DHT22;28715;51.988;6.020;2022-12-15T10:00:18;-0.10;98.10
43099;DHT22;28715;51.988;6.020;2022-12-15T10:06:09;1.10;95.90
43099;DHT22;28715;51.988;6.020;2022-12-15T10:08:37;1.70;95.20
43099;DHT22;28715;51.988;6.020;2022-12-15T10:14:30;2.50;93.10
43099;DHT22;28715;51.988;6.020;2022-12-15T10:17:17;2.90;92.20
43099;DHT22;28715;51.988;6.020;2022-12-15T10:20:13;3.10;91.50
43099;DHT22;28715;51.988;6.020;2022-12-15T10:22:41;3.30;91.50
43099;DHT22;28715;51.988;6.020;2022-12-15T10:25:16;3.60;91.20
43099;DHT22;28715;51.988;6.020;2022-12-15T10:30:12;4.00;89.90
43099;DHT22;28715;51.988;6.020;2022-12-15T10:32:59;3.90;89.00
43099;DHT22;28715;51.988;6.020;2022-12-15T10:35:29;3.90;89.40
43099;DHT22;28715;51.988;6.020;2022-12-15T10:37:59;4.00;89.00
43099;DHT22;28715;51.988;6.020;2022-12-15T10:40:43;4.10;88.90
43099;DHT22;28715;51.988;6.020;2022-12-15T10:43:22;4.20;89.10
43099;DHT22;28715;51.988;6.020;2022-12-15T10:45:49;4.20;88.30
43099;DHT22;28715;51.988;6.020;2022-12-15T10:48:19;4.30;88.40
43099;DHT22;28715;51.988;6.020;2022-12-15T10:50:45;4.40;88.60
43099;DHT22;28715;51.988;6.020;2022-12-15T10:53:41;4.50;88.10
43099;DHT22;28715;51.988;6.020;2022-12-15T10:56:07;4.60;88.30
43099;DHT22;28715;51.988;6.020;2022-12-15T10:58:46;4.70;88.20
43099;DHT22;28715;51.988;6.020;2022-12-15T11:01:18;4.80;88.20
43099;DHT22;28715;51.988;6.020;2022-12-15T11:03:44;4.80;88.00
43099;DHT22;28715;51.988;6.020;2022-12-15T11:06:40;4.90;88.00
43099;DHT22;28715;51.988;6.020;2022-12-15T11:09:18;5.00;88.60
43099;DHT22;28715;51.988;6.020;2022-12-15T11:11:46;5.00;87.50
43099;DHT22;28715;51.988;6.020;2022-12-15T11:14:43;5.00;87.30
43099;DHT22;28715;51.988;6.020;2022-12-15T11:17:17;4.90;87.80
43099;DHT22;28715;51.988;6.020;2022-12-15T11:19:45;4.90;88.40
43099;DHT22;28715;51.988;6.020;2022-12-15T11:22:21;4.90;88.80
43099;DHT22;28715;51.988;6.020;2022-12-15T11:24:53;4.90;88.70
43099;DHT22;28715;51.988;6.020;2022-12-15T11:27:32;4.90;89.00
43099;DHT22;28715;51.988;6.020;2022-12-15T11:30:18;4.90;89.50
43099;DHT22;28715;51.988;6.020;2022-12-15T11:32:47;4.90;90.00
43099;DHT22;28715;51.988;6.020;2022-12-15T11:35:19;5.00;90.10
43099;DHT22;28715;51.988;6.020;2022-12-15T11:37:55;4.90;90.20
43099;DHT22;28715;51.988;6.020;2022-12-15T11:40:39;5.00;90.30
43099;DHT22;28715;51.988;6.020;2022-12-15T11:48:47;5.20;89.90
43099;DHT22;28715;51.988;6.020;2022-12-15T11:51:29;5.20;89.20
43099;DHT22;28715;51.988;6.020;2022-12-15T11:56:55;5.00;90.00
43099;DHT22;28715;51.988;6.020;2022-12-15T11:59:45;5.00;90.00
43099;DHT22;28715;51.988;6.020;2022-12-15T12:07:51;4.90;90.20
43099;DHT22;28715;51.988;6.020;2022-12-15T12:10:30;4.80;90.50
43099;DHT22;28715;51.988;6.020;2022-12-15T12:21:47;4.60;90.60
43099;DHT22;28715;51.988;6.020;2022-12-15T12:24:28;4.50;90.90
43099;DHT22;28715;51.988;6.020;2022-12-15T12:27:04;4.40;91.10
43099;DHT22;28715;51.988;6.020;2022-12-15T12:29:48;4.30;91.20
43099;DHT22;28715;51.988;6.020;2022-12-15T12:32:45;4.30;91.30
43099;DHT22;28715;51.988;6.020;2022-12-15T12:35:29;4.10;91.40
43099;DHT22;28715;51.988;6.020;2022-12-15T12:38:02;4.10;91.60
43099;DHT22;28715;51.988;6.020;2022-12-15T12:43:04;3.90;91.80
43099;DHT22;28715;51.988;6.020;2022-12-15T12:51:11;3.70;92.50
43099;DHT22;28715;51.988;6.020;2022-12-15T12:53:37;3.70;92.40
43099;DHT22;28715;51.988;6.020;2022-12-15T12:56:03;3.70;92.40
43099;DHT22;28715;51.988;6.020;2022-12-15T12:58:39;3.70;92.40
43099;DHT22;28715;51.988;6.020;2022-12-15T13:03:38;3.60;92.70
43099;DHT22;28715;51.988;6.020;2022-12-15T13:12:49;3.50;93.00
43099;DHT22;28715;51.988;6.020;2022-12-15T13:15:37;3.40;93.00
43099;DHT22;28715;51.988;6.020;2022-12-15T13:18:05;3.40;93.20
43099;DHT22;28715;51.988;6.020;2022-12-15T13:20:34;3.50;93.00
43099;DHT22;28715;51.988;6.020;2022-12-15T13:25:45;3.30;93.10
43099;DHT22;28715;51.988;6.020;2022-12-15T13:28:27;3.30;93.30
43099;DHT22;28715;51.988;6.020;2022-12-15T13:31:31;3.20;93.50
43099;DHT22;28715;51.988;6.020;2022-12-15T13:34:13;3.20;93.80
43099;DHT22;28715;51.988;6.020;2022-12-15T13:44:30;3.40;94.00
43099;DHT22;28715;51.988;6.020;2022-12-15T13:47:27;3.40;94.00
43099;DHT22;28715;51.988;6.020;2022-12-15T13:50:14;3.40;93.90
43099;DHT22;28715;51.988;6.020;2022-12-15T13:52:44;3.40;93.80
43099;DHT22;28715;51.988;6.020;2022-12-15T13:55:21;3.40;93.80
43099;DHT22;28715;51.988;6.020;2022-12-15T13:58:17;3.30;93.80
43099;DHT22;28715;51.988;6.020;2022-12-15T14:00:54;3.30;93.80
43099;DHT22;28715;51.988;6.020;2022-12-15T14:03:21;3.30;93.90
43099;DHT22;28715;51.988;6.020;2022-12-15T14:06:10;3.30;94.00
43099;DHT22;28715;51.988;6.020;2022-12-15T14:08:37;3.30;94.10
43099;DHT22;28715;51.988;6.020;2022-12-15T14:11:02;3.30;94.00
43099;DHT22;28715;51.988;6.020;2022-12-15T14:13:28;3.30;93.90
43099;DHT22;28715;51.988;6.020;2022-12-15T14:18:41;3.10;94.00
43099;DHT22;28715;51.988;6.020;2022-12-15T14:21:18;3.10;94.10
43099;DHT22;28715;51.988;6.020;2022-12-15T14:23:45;3.00;94.20
43099;DHT22;28715;51.988;6.020;2022-12-15T14:26:12;3.00;94.30
43099;DHT22;28715;51.988;6.020;2022-12-15T14:28:40;3.00;94.40
43099;DHT22;28715;51.988;6.020;2022-12-15T14:31:11;3.00;94.50
43099;DHT22;28715;51.988;6.020;2022-12-15T14:33:40;2.90;94.40
43099;DHT22;28715;51.988;6.020;2022-12-15T14:36:09;2.90;94.50
43099;DHT22;28715;51.988;6.020;2022-12-15T14:38:44;2.90;94.40
43099;DHT22;28715;51.988;6.020;2022-12-15T14:41:21;3.00;94.40
43099;DHT22;28715;51.988;6.020;2022-12-15T14:43:49;2.90;94.40
43099;DHT22;28715;51.988;6.020;2022-12-15T14:46:18;2.90;94.40
43099;DHT22;28715;51.988;6.020;2022-12-15T14:48:50;2.90;94.30
43099;DHT22;28715;51.988;6.020;2022-12-15T14:51:17;2.90;94.40
43099;DHT22;28715;51.988;6.020;2022-12-15T14:53:48;2.90;94.20
43099;DHT22;28715;51.988;6.020;2022-12-15T14:56:26;2.80;94.30
43099;DHT22;28715;51.988;6.020;2022-12-15T14:58:59;2.80;94.50
43099;DHT22;28715;51.988;6.020;2022-12-15T15:01:48;2.80;94.60
43099;DHT22;28715;51.988;6.020;2022-12-15T15:04:22;2.80;94.60
43099;DHT22;28715;51.988;6.020;2022-12-15T15:06:53;2.80;94.70
43099;DHT22;28715;51.988;6.020;2022-12-15T15:12:04;2.80;94.70
43099;DHT22;28715;51.988;6.020;2022-12-15T15:14:36;2.70;94.70
43099;DHT22;28715;51.988;6.020;2022-12-15T15:19:38;2.70;94.70
43099;DHT22;28715;51.988;6.020;2022-12-15T15:24:54;2.50;94.60
43099;DHT22;28715;51.988;6.020;2022-12-15T15:27:25;2.50;94.60
43099;DHT22;28715;51.988;6.020;2022-12-15T15:29:51;2.40;94.60
43099;DHT22;28715;51.988;6.020;2022-12-15T15:32:20;2.40;94.70
43099;DHT22;28715;51.988;6.020;2022-12-15T15:34:46;2.30;94.70
43099;DHT22;28715;51.988;6.020;2022-12-15T15:37:19;2.20;94.70
43099;DHT22;28715;51.988;6.020;2022-12-15T15:39:50;2.20;94.60
43099;DHT22;28715;51.988;6.020;2022-12-15T15:42:16;2.10;94.60
43099;DHT22;28715;51.988;6.020;2022-12-15T15:44:41;2.10;94.60
43099;DHT22;28715;51.988;6.020;2022-12-15T15:47:20;2.00;94.50
43099;DHT22;28715;51.988;6.020;2022-12-15T15:49:48;2.00;94.70
43099;DHT22;28715;51.988;6.020;2022-12-15T15:52:14;2.00;94.70
43099;DHT22;28715;51.988;6.020;2022-12-15T15:54:40;1.90;94.80
43099;DHT22;28715;51.988;6.020;2022-12-15T15:57:14;1.90;94.90
43099;DHT22;28715;51.988;6.020;2022-12-15T15:59:40;1.90;94.90
43099;DHT22;28715;51.988;6.020;2022-12-15T16:02:11;1.90;94.90
43099;DHT22;28715;51.988;6.020;2022-12-15T16:04:39;1.80;94.90
43099;DHT22;28715;51.988;6.020;2022-12-15T16:07:15;1.80;94.90
43099;DHT22;28715;51.988;6.020;2022-12-15T16:09:44;1.70;94.90
43099;DHT22;28715;51.988;6.020;2022-12-15T16:12:27;1.70;94.90
43099;DHT22;28715;51.988;6.020;2022-12-15T16:14:54;1.60;95.00
43099;DHT22;28715;51.988;6.020;2022-12-15T16:17:21;1.60;95.10
43099;DHT22;28715;51.988;6.020;2022-12-15T16:19:46;1.60;95.20
43099;DHT22;28715;51.988;6.020;2022-12-15T16:22:15;1.60;95.20
43099;DHT22;28715;51.988;6.020;2022-12-15T16:24:42;1.60;95.10
43099;DHT22;28715;51.988;6.020;2022-12-15T16:27:09;1.50;95.10
43099;DHT22;28715;51.988;6.020;2022-12-15T16:29:35;1.50;95.10
43099;DHT22;28715;51.988;6.020;2022-12-15T16:32:01;1.40;95.10
43099;DHT22;28715;51.988;6.020;2022-12-15T16:34:26;1.40;95.20
43099;DHT22;28715;51.988;6.020;2022-12-15T16:36:52;1.40;95.20
43099;DHT22;28715;51.988;6.020;2022-12-15T16:39:27;1.30;95.10
43099;DHT22;28715;51.988;6.020;2022-12-15T16:41:55;1.30;95.20
43099;DHT22;28715;51.988;6.020;2022-12-15T16:44:22;1.30;95.20
43099;DHT22;28715;51.988;6.020;2022-12-15T16:46:48;1.20;95.20
43099;DHT22;28715;51.988;6.020;2022-12-15T16:49:13;1.20;95.20
43099;DHT22;28715;51.988;6.020;2022-12-15T16:51:42;1.20;95.40
43099;DHT22;28715;51.988;6.020;2022-12-15T16:54:19;1.10;95.40
43099;DHT22;28715;51.988;6.020;2022-12-15T16:56:46;1.10;95.30
43099;DHT22;28715;51.988;6.020;2022-12-15T16:59:16;1.10;95.40
43099;DHT22;28715;51.988;6.020;2022-12-15T17:01:43;1.10;95.40
43099;DHT22;28715;51.988;6.020;2022-12-15T17:04:09;1.00;95.30
43099;DHT22;28715;51.988;6.020;2022-12-15T17:06:34;1.00;95.30
43099;DHT22;28715;51.988;6.020;2022-12-15T17:09:00;0.90;95.30
43099;DHT22;28715;51.988;6.020;2022-12-15T17:11:27;0.90;95.30
43099;DHT22;28715;51.988;6.020;2022-12-15T17:13:55;0.90;95.30
43099;DHT22;28715;51.988;6.020;2022-12-15T17:16:23;0.80;95.20
43099;DHT22;28715;51.988;6.020;2022-12-15T17:18:49;0.90;95.30
43099;DHT22;28715;51.988;6.020;2022-12-15T17:21:18;0.80;95.30
43099;DHT22;28715;51.988;6.020;2022-12-15T17:23:47;0.80;95.20
43099;DHT22;28715;51.988;6.020;2022-12-15T17:26:25;0.70;95.00
43099;DHT22;28715;51.988;6.020;2022-12-15T17:28:52;0.70;95.10
43099;DHT22;28715;51.988;6.020;2022-12-15T17:31:20;0.70;95.10
43099;DHT22;28715;51.988;6.020;2022-12-15T17:33:46;0.60;95.30
43099;DHT22;28715;51.988;6.020;2022-12-15T17:36:22;0.60;95.30
43099;DHT22;28715;51.988;6.020;2022-12-15T17:38:56;0.60;95.40
43099;DHT22;28715;51.988;6.020;2022-12-15T17:41:23;0.60;95.50
43099;DHT22;28715;51.988;6.020;2022-12-15T17:43:49;0.50;95.40
43099;DHT22;28715;51.988;6.020;2022-12-15T17:46:15;0.50;95.30
43099;DHT22;28715;51.988;6.020;2022-12-15T17:48:40;0.50;95.20
43099;DHT22;28715;51.988;6.020;2022-12-15T17:51:18;0.40;95.30
43099;DHT22;28715;51.988;6.020;2022-12-15T17:53:46;0.40;95.40
43099;DHT22;28715;51.988;6.020;2022-12-15T17:56:15;0.40;95.40